Time;durP1;ratioP1;P1;durP2;ratioP2;P2;SDS_P1;SDS_P2;PMS_P1;PMS_P2;Temp;Humidity;BMP_temperature;BMP_pressure;BME280_temperature;BME280_humidity;BME280_pressure;Samples;Min_cycle;Max_cycle;Signal;HPM_P1;HPM_P2
2021/06/14 00:00:44;;;;;;;6.70;3.43;;;16.30;69.20;;;;;;5072303;28;20180;-76
2021/06/14 00:03:10;;;;;;;5.63;3.63;;;16.30;69.20;;;;;;5067824;28;20172;-75
2021/06/14 00:05:38;;;;;;;4.90;3.20;;;16.20;69.70;;;;;;5072222;28;20280;-75
2021/06/14 00:08:11;;;;;;;4.40;3.17;;;16.20;69.70;;;;;;5073059;28;20592;-74
2021/06/14 00:10:37;;;;;;;4.57;3.40;;;16.30;68.90;;;;;;5072246;28;20426;-74
2021/06/14 00:13:06;;;;;;;4.80;3.37;;;16.30;68.80;;;;;;5063902;28;20438;-74
2021/06/14 00:15:33;;;;;;;7.20;3.40;;;16.30;68.90;;;;;;5074870;28;20495;-74
2021/06/14 00:17:59;;;;;;;5.47;3.37;;;16.30;68.50;;;;;;5074183;28;20912;-76
2021/06/14 00:20:25;;;;;;;5.73;3.70;;;16.30;68.30;;;;;;5074669;28;20423;-74
2021/06/14 00:22:52;;;;;;;5.83;3.53;;;16.20;68.50;;;;;;5072445;28;20936;-75
2021/06/14 00:25:30;;;;;;;4.90;3.27;;;16.20;68.30;;;;;;5074011;28;20479;-75
2021/06/14 00:27:56;;;;;;;5.50;3.40;;;16.20;68.90;;;;;;5075599;28;20413;-75
2021/06/14 00:30:43;;;;;;;9.23;3.30;;;16.20;69.10;;;;;;5075112;28;20434;-75
2021/06/14 00:33:11;;;;;;;6.17;3.87;;;16.30;69.10;;;;;;5069308;28;20452;-74
2021/06/14 00:35:38;;;;;;;11.00;4.20;;;16.30;68.90;;;;;;5077883;28;20491;-74
2021/06/14 00:38:04;;;;;;;5.63;3.43;;;16.20;69.20;;;;;;5076981;28;20915;-73
2021/06/14 00:40:31;;;;;;;8.27;3.73;;;16.10;69.90;;;;;;5072043;28;20415;-75
2021/06/14 00:42:57;;;;;;;7.33;3.60;;;16.00;71.00;;;;;;5079527;28;20412;-74
2021/06/14 00:45:27;;;;;;;9.17;3.77;;;15.80;72.30;;;;;;5079835;28;20975;-74
2021/06/14 00:47:53;;;;;;;8.07;4.10;;;15.60;73.00;;;;;;5076796;28;20505;-74
2021/06/14 00:50:31;;;;;;;6.00;3.80;;;15.60;73.50;;;;;;5076714;28;20923;-75
2021/06/14 00:52:57;;;;;;;7.20;3.57;;;15.60;72.90;;;;;;5068692;28;20178;-74
2021/06/14 00:55:22;;;;;;;8.00;4.60;;;15.60;72.40;;;;;;5072433;28;21011;-75
2021/06/14 00:57:48;;;;;;;9.30;3.70;;;15.70;72.10;;;;;;5072069;28;20189;-75
2021/06/14 01:00:15;;;;;;;12.67;3.87;;;15.60;72.10;;;;;;5071530;28;20184;-75
2021/06/14 01:02:41;;;;;;;3.90;3.23;;;15.60;72.00;;;;;;5069842;28;20215;-76
2021/06/14 01:05:11;;;;;;;5.33;3.80;;;15.70;71.70;;;;;;5069797;28;20529;-74
2021/06/14 01:07:38;;;;;;;9.20;3.70;;;15.60;71.30;;;;;;5072058;28;20692;-75
2021/06/14 01:10:07;;;;;;;5.07;3.60;;;15.50;71.60;;;;;;5071309;28;20418;-73
2021/06/14 01:13:05;;;;;;;6.10;3.50;;;15.50;71.70;;;;;;5069017;28;21013;-75
2021/06/14 01:15:34;;;;;;;4.80;3.40;;;15.50;72.10;;;;;;5072027;28;20572;-75
2021/06/14 01:18:04;;;;;;;6.27;3.50;;;15.60;72.30;;;;;;5076354;28;20738;-76
2021/06/14 01:20:51;;;;;;;5.20;3.33;;;15.60;72.30;;;;;;5071094;28;20499;-75
2021/06/14 01:23:39;;;;;;;5.50;3.37;;;15.60;72.60;;;;;;5079949;28;20437;-74
2021/06/14 01:26:13;;;;;;;6.43;4.20;;;15.50;72.70;;;;;;5062137;28;20413;-76
2021/06/14 01:28:40;;;;;;;6.27;3.70;;;15.40;73.90;;;;;;5070883;28;20419;-75
2021/06/14 01:31:08;;;;;;;5.50;4.00;;;15.30;74.30;;;;;;5070448;28;20514;-75
2021/06/14 01:33:35;;;;;;;6.90;4.00;;;15.20;74.80;;;;;;5070914;28;20454;-75
2021/06/14 01:36:15;;;;;;;7.00;3.97;;;15.20;75.20;;;;;;5070858;28;20460;-74
2021/06/14 01:38:44;;;;;;;6.97;4.13;;;15.20;75.50;;;;;;5071159;28;20453;-74
2021/06/14 01:41:11;;;;;;;6.47;3.63;;;15.20;75.20;;;;;;5071541;28;20437;-73
2021/06/14 01:43:40;;;;;;;6.70;3.50;;;15.20;74.50;;;;;;5071739;28;20461;-74
2021/06/14 01:46:11;;;;;;;7.17;4.43;;;15.20;74.20;;;;;;5072234;28;20423;-74
2021/06/14 01:48:39;;;;;;;7.83;3.73;;;15.20;74.20;;;;;;5071935;28;20422;-73
2021/06/14 01:51:08;;;;;;;7.17;3.20;;;15.20;74.00;;;;;;5070984;28;20421;-74
2021/06/14 01:53:35;;;;;;;5.90;4.10;;;15.20;73.70;;;;;;5070250;28;20453;-73
2021/06/14 01:56:02;;;;;;;7.17;3.90;;;15.10;75.90;;;;;;5072130;28;20455;-75
2021/06/14 01:58:30;;;;;;;8.20;4.03;;;15.00;76.70;;;;;;5071976;28;20471;-75
2021/06/14 02:00:56;;;;;;;7.67;3.80;;;14.80;77.40;;;;;;5069783;28;20472;-74
2021/06/14 02:03:24;;;;;;;10.63;5.23;;;14.70;78.10;;;;;;5071629;28;20468;-75
2021/06/14 02:05:50;;;;;;;7.03;3.77;;;14.70;78.10;;;;;;5071499;28;20510;-74
2021/06/14 02:08:18;;;;;;;4.67;3.67;;;14.60;78.70;;;;;;5070148;28;20418;-75
2021/06/14 02:10:44;;;;;;;7.30;4.00;;;14.50;79.00;;;;;;5070495;28;20496;-74
2021/06/14 02:13:12;;;;;;;6.83;3.50;;;14.50;79.30;;;;;;5070336;28;20430;-75
2021/06/14 02:15:38;;;;;;;4.93;3.73;;;14.60;78.70;;;;;;5071985;28;20971;-75
2021/06/14 02:18:04;;;;;;;7.07;3.83;;;14.60;78.30;;;;;;5072126;28;20414;-73
2021/06/14 02:20:30;;;;;;;5.73;3.17;;;14.70;77.80;;;;;;5070582;28;20173;-74
2021/06/14 02:22:56;;;;;;;5.30;3.50;;;14.70;77.40;;;;;;5070519;28;20917;-75
2021/06/14 02:25:22;;;;;;;5.07;3.17;;;14.70;77.10;;;;;;5069908;28;20866;-74
2021/06/14 02:27:48;;;;;;;6.47;3.47;;;14.80;77.00;;;;;;5063020;28;20184;-75
2021/06/14 02:30:17;;;;;;;8.00;3.77;;;14.80;76.80;;;;;;5070601;28;20181;-75
2021/06/14 02:32:44;;;;;;;6.67;3.47;;;14.80;76.70;;;;;;5083660;28;20189;-74
2021/06/14 02:35:11;;;;;;;8.63;4.20;;;14.70;76.40;;;;;;5085539;28;20462;-75
2021/06/14 02:37:39;;;;;;;5.17;3.40;;;14.70;78.00;;;;;;5069787;28;20480;-74
2021/06/14 02:40:10;;;;;;;9.07;4.03;;;14.60;78.40;;;;;;5072358;28;20451;-74
2021/06/14 02:42:37;;;;;;;6.10;3.97;;;14.50;79.30;;;;;;5069230;28;20460;-74
2021/06/14 02:45:07;;;;;;;8.80;3.77;;;14.30;79.70;;;;;;5067329;28;20537;-75
2021/06/14 02:47:35;;;;;;;9.70;4.00;;;14.30;80.20;;;;;;5067422;28;20422;-75
2021/06/14 02:50:04;;;;;;;6.37;3.80;;;14.30;80.30;;;;;;5070639;28;20432;-75
2021/06/14 02:52:32;;;;;;;6.73;4.40;;;14.30;80.00;;;;;;5070424;28;20417;-75
2021/06/14 02:55:04;;;;;;;6.43;3.73;;;14.40;79.50;;;;;;5070675;28;20446;-76
2021/06/14 02:57:31;;;;;;;8.97;4.10;;;14.40;78.70;;;;;;5071551;28;20484;-75
2021/06/14 02:59:59;;;;;;;6.13;4.07;;;14.50;78.10;;;;;;5071361;28;20466;-75
2021/06/14 03:02:26;;;;;;;5.40;3.83;;;14.50;78.70;;;;;;5064855;28;20788;-75
2021/06/14 03:04:53;;;;;;;5.23;3.43;;;14.50;79.00;;;;;;5072082;28;20450;-74
2021/06/14 03:07:23;;;;;;;8.47;4.13;;;14.50;79.30;;;;;;5073089;28;20413;-75
2021/06/14 03:09:50;;;;;;;6.17;4.37;;;14.50;79.20;;;;;;5074646;28;20414;-77
2021/06/14 03:12:17;;;;;;;5.97;3.90;;;14.30;80.30;;;;;;5080211;28;20425;-77
2021/06/14 03:14:45;;;;;;;11.67;4.90;;;14.20;80.90;;;;;;5076961;28;20445;-73
2021/06/14 03:17:11;;;;;;;8.70;4.20;;;14.20;81.10;;;;;;5081004;28;20418;-75
2021/06/14 03:19:39;;;;;;;5.63;3.90;;;14.20;81.20;;;;;;5075744;28;20426;-75
2021/06/14 03:22:08;;;;;;;8.43;4.47;;;14.10;81.50;;;;;;5072595;28;20406;-74
2021/06/14 03:24:35;;;;;;;5.67;4.43;;;14.10;81.40;;;;;;5078300;28;20449;-75
2021/06/14 03:27:01;;;;;;;5.53;3.83;;;14.20;80.60;;;;;;5076791;28;20421;-74
2021/06/14 03:29:28;;;;;;;9.83;3.80;;;14.20;80.30;;;;;;5076947;28;20746;-74
2021/06/14 03:31:54;;;;;;;8.20;4.37;;;14.20;79.70;;;;;;5074337;28;20908;-76
2021/06/14 03:34:22;;;;;;;7.10;4.17;;;14.20;79.00;;;;;;5074380;28;20456;-76
2021/06/14 03:36:49;;;;;;;7.50;4.67;;;14.20;79.20;;;;;;5074349;28;20516;-74
2021/06/14 03:39:18;;;;;;;7.77;4.20;;;14.20;79.00;;;;;;5074758;28;20410;-75
2021/06/14 03:41:45;;;;;;;10.13;4.30;;;14.20;79.00;;;;;;5073348;28;20521;-75
2021/06/14 03:44:11;;;;;;;6.27;4.60;;;14.20;79.00;;;;;;5074343;28;20446;-75
2021/06/14 03:46:38;;;;;;;8.60;4.37;;;14.20;79.30;;;;;;5073018;28;20474;-74
2021/06/14 03:49:04;;;;;;;6.63;3.70;;;14.20;79.20;;;;;;5071929;28;20426;-75
2021/06/14 03:51:31;;;;;;;5.80;3.77;;;14.30;79.20;;;;;;5072248;28;21186;-75
2021/06/14 03:53:57;;;;;;;7.40;4.30;;;14.30;79.00;;;;;;5073027;28;20959;-75
2021/06/14 03:56:28;;;;;;;8.27;4.23;;;14.30;79.20;;;;;;5068733;28;20964;-76
2021/06/14 03:58:54;;;;;;;9.53;4.67;;;14.30;79.20;;;;;;5072347;28;20936;-78
2021/06/14 04:01:21;;;;;;;7.50;4.20;;;14.30;79.20;;;;;;5066839;28;20423;-75
2021/06/14 04:04:34;;;;;;;6.23;4.83;;;14.30;79.50;;;;;;5069555;28;20869;-74
2021/06/14 04:06:39;;;;;;;11.53;4.53;;;14.40;80.20;;;;;;5069757;28;20410;-74
2021/06/14 04:09:05;;;;;;;8.93;4.10;;;14.40;80.00;;;;;;5072723;28;20414;-75
2021/06/14 04:11:31;;;;;;;8.23;4.43;;;14.40;80.00;;;;;;5072428;28;20565;-74
2021/06/14 04:13:57;;;;;;;7.40;4.40;;;14.40;79.70;;;;;;5072656;28;20450;-75
2021/06/14 04:16:22;;;;;;;7.73;4.40;;;14.40;79.00;;;;;;5066041;28;20455;-74
2021/06/14 04:18:49;;;;;;;7.83;4.37;;;14.40;79.20;;;;;;5071164;28;20230;-73
2021/06/14 04:21:15;;;;;;;8.30;4.63;;;14.50;79.70;;;;;;5067220;28;20176;-76
2021/06/14 04:23:41;;;;;;;6.03;4.37;;;14.50;79.90;;;;;;5073735;28;20454;-75
2021/06/14 04:26:08;;;;;;;8.30;4.53;;;14.50;79.90;;;;;;5070744;28;20422;-74
2021/06/14 04:28:34;;;;;;;10.50;5.23;;;14.60;79.90;;;;;;5074271;28;20456;-76
2021/06/14 04:31:00;;;;;;;6.00;4.30;;;14.70;79.60;;;;;;5078535;28;21215;-75
2021/06/14 04:33:26;;;;;;;6.80;4.70;;;14.70;79.60;;;;;;5077140;28;20635;-73
2021/06/14 04:35:52;;;;;;;11.57;5.33;;;14.80;79.60;;;;;;5076662;28;20844;-75
2021/06/14 04:38:18;;;;;;;7.60;4.90;;;14.80;79.00;;;;;;5077623;28;20414;-77
2021/06/14 04:40:44;;;;;;;7.20;4.40;;;14.80;79.00;;;;;;5073944;28;20184;-75
2021/06/14 04:43:09;;;;;;;11.23;5.93;;;14.80;79.70;;;;;;5077902;28;20414;-74
2021/06/14 04:45:35;;;;;;;8.77;4.80;;;14.80;79.70;;;;;;5071666;28;20551;-74
2021/06/14 04:48:01;;;;;;;9.10;5.13;;;14.90;79.90;;;;;;5076268;28;20223;-75
2021/06/14 04:50:27;;;;;;;7.97;4.53;;;14.90;79.30;;;;;;5072106;28;21044;-76
2021/06/14 04:52:52;;;;;;;10.10;6.40;;;14.90;79.50;;;;;;5068971;28;20191;-75
2021/06/14 04:55:18;;;;;;;11.10;4.90;;;15.00;78.70;;;;;;5072203;28;20665;-74
2021/06/14 04:57:44;;;;;;;9.70;5.33;;;15.10;78.40;;;;;;5072297;28;20251;-74
2021/06/14 05:00:10;;;;;;;9.00;4.97;;;15.00;78.70;;;;;;5070985;28;20888;-77
2021/06/14 05:02:36;;;;;;;14.20;6.33;;;14.90;79.30;;;;;;5066044;28;20184;-75
2021/06/14 05:05:03;;;;;;;9.20;5.57;;;14.70;79.70;;;;;;5071626;28;20423;-75
2021/06/14 05:07:29;;;;;;;9.47;5.10;;;14.70;80.20;;;;;;5072139;28;20259;-75
2021/06/14 05:09:56;;;;;;;10.60;5.07;;;14.70;80.20;;;;;;5071784;28;20922;-74
2021/06/14 05:12:22;;;;;;;8.50;5.87;;;14.80;80.00;;;;;;5071018;28;20180;-74
2021/06/14 05:14:48;;;;;;;9.93;5.47;;;14.90;79.50;;;;;;5070320;28;20761;-77
2021/06/14 05:17:17;;;;;;;9.37;5.57;;;14.90;79.70;;;;;;5071527;28;20431;-76
2021/06/14 05:19:43;;;;;;;8.37;5.40;;;14.90;79.50;;;;;;5071658;28;20187;-76
2021/06/14 05:22:09;;;;;;;7.70;5.40;;;15.10;79.50;;;;;;5069398;28;20417;-75
2021/06/14 05:24:34;;;;;;;10.90;4.80;;;15.20;79.20;;;;;;5071393;28;20430;-75
2021/06/14 05:27:00;;;;;;;10.33;6.10;;;15.40;79.20;;;;;;5071112;28;20195;-74
2021/06/14 05:29:26;;;;;;;10.87;5.73;;;15.50;78.60;;;;;;5070400;28;20233;-74
2021/06/14 05:31:52;;;;;;;9.73;5.90;;;15.60;78.10;;;;;;5069925;28;20225;-75
2021/06/14 05:34:18;;;;;;;9.90;5.60;;;15.90;77.00;;;;;;5063700;28;20229;-75
2021/06/14 05:36:43;;;;;;;7.50;5.07;;;15.90;75.90;;;;;;5070386;28;20545;-76
2021/06/14 05:39:09;;;;;;;7.93;5.03;;;16.10;75.80;;;;;;5068403;28;20542;-75
2021/06/14 05:41:35;;;;;;;9.77;5.70;;;16.20;75.70;;;;;;5070929;28;20219;-74
2021/06/14 05:44:01;;;;;;;9.07;5.00;;;16.40;74.30;;;;;;5072614;28;20335;-73
2021/06/14 05:46:27;;;;;;;8.73;4.83;;;16.40;74.30;;;;;;5071321;28;20422;-75
2021/06/14 05:48:53;;;;;;;14.83;6.40;;;16.60;73.60;;;;;;5070511;28;20414;-73
2021/06/14 05:51:18;;;;;;;10.97;5.60;;;16.70;73.90;;;;;;5068971;28;20603;-73
2021/06/14 05:53:48;;;;;;;13.87;6.50;;;16.80;74.00;;;;;;5069483;28;20257;-76
2021/06/14 05:56:16;;;;;;;8.57;5.07;;;16.90;72.00;;;;;;5071612;28;20613;-73
2021/06/14 05:58:43;;;;;;;10.10;5.80;;;17.00;72.30;;;;;;5071300;28;20940;-73
2021/06/14 06:01:08;;;;;;;8.97;6.10;;;17.10;72.30;;;;;;5070225;28;20420;-73
2021/06/14 06:03:34;;;;;;;9.33;4.47;;;17.10;71.60;;;;;;5070896;28;20449;-74
2021/06/14 06:06:00;;;;;;;7.97;4.23;;;17.20;70.20;;;;;;5067842;28;20197;-73
2021/06/14 06:08:26;;;;;;;10.73;5.40;;;17.30;68.60;;;;;;5070343;28;20559;-73
2021/06/14 06:10:51;;;;;;;7.93;3.93;;;17.50;67.90;;;;;;5065935;28;20182;-72
2021/06/14 06:13:17;;;;;;;5.83;4.03;;;17.60;66.90;;;;;;5069807;28;20195;-72
2021/06/14 06:15:43;;;;;;;9.13;4.30;;;17.70;65.30;;;;;;5068503;28;20205;-72
2021/06/14 06:18:10;;;;;;;7.33;4.97;;;17.70;65.30;;;;;;5069318;28;20433;-74
2021/06/14 06:20:36;;;;;;;6.07;3.50;;;17.80;65.10;;;;;;5069737;28;20458;-76
2021/06/14 06:23:03;;;;;;;7.13;3.93;;;18.00;64.70;;;;;;5070294;28;20424;-72
2021/06/14 06:25:29;;;;;;;11.33;4.33;;;18.10;64.40;;;;;;5062533;28;20201;-73
2021/06/14 06:27:55;;;;;;;6.50;3.80;;;18.20;63.20;;;;;;5069748;28;20425;-73
2021/06/14 06:30:26;;;;;;;8.37;4.37;;;18.30;63.70;;;;;;5069611;28;20640;-74
2021/06/14 06:32:53;;;;;;;8.00;4.00;;;18.30;62.20;;;;;;5069746;28;20479;-72
2021/06/14 06:35:19;;;;;;;8.13;3.90;;;18.40;62.80;;;;;;5070394;28;20458;-72
2021/06/14 06:37:45;;;;;;;6.27;4.40;;;18.40;61.30;;;;;;5070472;28;20420;-74
2021/06/14 06:40:13;;;;;;;6.77;3.80;;;18.50;61.90;;;;;;5068369;28;20421;-74
2021/06/14 06:42:40;;;;;;;5.83;3.67;;;18.60;60.90;;;;;;5067210;28;20426;-75
2021/06/14 06:45:07;;;;;;;8.20;4.00;;;18.60;60.60;;;;;;5070340;28;20436;-75
2021/06/14 06:47:33;;;;;;;5.90;3.90;;;18.70;60.70;;;;;;5070894;28;20504;-75
2021/06/14 06:49:59;;;;;;;12.07;4.60;;;18.70;60.00;;;;;;5069901;28;20503;-74
2021/06/14 06:52:25;;;;;;;9.07;3.97;;;18.70;59.90;;;;;;5069260;28;20449;-75
2021/06/14 06:54:50;;;;;;;7.20;4.20;;;18.70;60.40;;;;;;5073004;28;20263;-75
2021/06/14 06:57:17;;;;;;;7.60;3.97;;;18.80;61.00;;;;;;5076583;28;20187;-75
2021/06/14 06:59:43;;;;;;;7.40;4.20;;;19.00;60.90;;;;;;5082196;28;20395;-75
2021/06/14 07:02:09;;;;;;;6.27;4.07;;;19.00;60.00;;;;;;5080714;28;20424;-76
2021/06/14 07:04:37;;;;;;;6.13;4.37;;;19.00;60.40;;;;;;5072535;28;20441;-74
2021/06/14 07:07:03;;;;;;;9.23;4.47;;;19.00;60.40;;;;;;5086533;28;20171;-75
2021/06/14 07:09:29;;;;;;;16.90;4.50;;;19.00;59.90;;;;;;5085493;28;20416;-77
2021/06/14 07:11:56;;;;;;;9.77;4.20;;;19.00;60.30;;;;;;5075556;28;20984;-75
2021/06/14 07:14:23;;;;;;;12.70;4.23;;;19.10;60.40;;;;;;5071218;28;20593;-75
2021/06/14 07:16:48;;;;;;;6.37;4.00;;;19.20;60.10;;;;;;5070220;28;20506;-75
2021/06/14 07:19:14;;;;;;;11.30;4.33;;;19.30;59.10;;;;;;5066596;28;20918;-74
2021/06/14 07:21:40;;;;;;;7.80;4.27;;;19.40;59.60;;;;;;5067303;28;20192;-75
2021/06/14 07:24:07;;;;;;;9.47;4.20;;;19.40;58.80;;;;;;5066895;28;20437;-74
2021/06/14 07:26:34;;;;;;;10.73;4.23;;;19.40;58.20;;;;;;5064259;28;20425;-74
2021/06/14 07:29:01;;;;;;;8.07;4.07;;;19.50;58.00;;;;;;5064321;28;20530;-75
2021/06/14 07:31:27;;;;;;;5.13;3.70;;;19.50;58.40;;;;;;5066856;28;20792;-74
2021/06/14 07:33:58;;;;;;;9.53;3.70;;;19.60;58.40;;;;;;5068823;28;20506;-74
2021/06/14 07:36:24;;;;;;;9.00;4.77;;;19.70;57.60;;;;;;5070624;28;20971;-75
2021/06/14 07:38:50;;;;;;;7.40;4.80;;;19.70;57.30;;;;;;5063276;28;20806;-75
2021/06/14 07:41:16;;;;;;;7.90;4.43;;;19.70;57.70;;;;;;5069161;28;20657;-75
2021/06/14 07:43:41;;;;;;;9.60;4.40;;;19.80;58.10;;;;;;5070068;28;20207;-74
2021/06/14 07:46:07;;;;;;;14.20;4.50;;;19.90;58.50;;;;;;5065152;28;20200;-76
2021/06/14 07:48:34;;;;;;;10.80;4.00;;;20.10;56.90;;;;;;5069498;28;20278;-74
2021/06/14 07:51:00;;;;;;;10.00;4.77;;;20.20;56.40;;;;;;5068830;28;20200;-74
2021/06/14 07:53:26;;;;;;;5.73;3.50;;;20.20;56.60;;;;;;5069471;28;20446;-73
2021/06/14 07:55:53;;;;;;;8.20;4.47;;;20.30;56.90;;;;;;5069814;28;20208;-75
2021/06/14 07:58:19;;;;;;;6.40;4.27;;;20.30;56.10;;;;;;5069694;28;20446;-75
2021/06/14 08:00:45;;;;;;;10.50;4.27;;;20.20;56.20;;;;;;5067558;28;20426;-74
2021/06/14 08:03:11;;;;;;;9.60;4.10;;;20.20;56.50;;;;;;5070431;28;20920;-74
2021/06/14 08:05:38;;;;;;;9.67;4.87;;;20.30;56.80;;;;;;5068495;28;20197;-73
2021/06/14 08:08:04;;;;;;;7.17;3.97;;;20.40;56.80;;;;;;5069082;28;20538;-74
2021/06/14 08:10:29;;;;;;;9.97;4.40;;;20.50;55.80;;;;;;5071110;28;20419;-74
2021/06/14 08:12:55;;;;;;;7.40;4.30;;;20.60;55.80;;;;;;5072362;28;20438;-74
2021/06/14 08:15:28;;;;;;;6.80;4.47;;;20.60;55.60;;;;;;5073284;28;20210;-74
2021/06/14 08:25:55;;;;;;;7.53;3.80;;;20.80;54.80;;;;;;5074421;28;20441;-73
2021/06/14 08:28:20;;;;;;;5.67;3.80;;;20.80;54.80;;;;;;5072775;28;20885;-75
2021/06/14 08:30:46;;;;;;;6.23;3.93;;;20.90;54.90;;;;;;5077939;28;20190;-75
2021/06/14 08:33:12;;;;;;;9.27;4.10;;;21.00;54.00;;;;;;5086557;28;20199;-75
2021/06/14 08:35:38;;;;;;;10.60;4.23;;;21.00;54.00;;;;;;5080032;28;20723;-73
2021/06/14 08:38:03;;;;;;;5.83;4.27;;;21.10;53.60;;;;;;5077185;28;20649;-74
2021/06/14 08:40:31;;;;;;;7.13;4.00;;;21.10;52.10;;;;;;5086173;28;20189;-74
2021/06/14 08:43:03;;;;;;;6.93;3.60;;;21.10;51.80;;;;;;5076516;28;20418;-76
2021/06/14 08:45:29;;;;;;;8.60;4.13;;;21.30;50.90;;;;;;5088300;28;20458;-75
2021/06/14 08:47:55;;;;;;;5.00;3.53;;;21.30;50.70;;;;;;5090182;28;20427;-74
2021/06/14 08:50:21;;;;;;;6.10;3.97;;;21.40;49.80;;;;;;5065576;28;20426;-74
2021/06/14 08:52:48;;;;;;;7.30;4.10;;;21.40;50.50;;;;;;5071274;28;20199;-75
2021/06/14 08:55:15;;;;;;;5.30;4.10;;;21.50;50.10;;;;;;5067254;28;20295;-77
2021/06/14 08:57:41;;;;;;;4.80;3.43;;;21.60;49.80;;;;;;5073341;28;20423;-74
2021/06/14 09:00:11;;;;;;;5.63;3.57;;;21.60;49.50;;;;;;5073017;28;20446;-74
2021/06/14 09:02:37;;;;;;;8.27;3.57;;;21.70;49.40;;;;;;5076870;28;20191;-74
2021/06/14 09:05:07;;;;;;;5.40;3.20;;;21.90;48.60;;;;;;5074851;28;20436;-76
2021/06/14 09:07:33;;;;;;;7.10;3.50;;;22.00;48.20;;;;;;5073597;28;20189;-74
2021/06/14 09:09:59;;;;;;;6.33;4.07;;;22.00;47.10;;;;;;5071943;28;20425;-74
2021/06/14 09:12:36;;;;;;;10.40;4.60;;;22.10;47.80;;;;;;5071556;28;20210;-75
2021/06/14 09:15:08;;;;;;;7.13;3.43;;;22.10;47.50;;;;;;5066630;28;20812;-75
2021/06/14 09:17:33;;;;;;;7.60;4.10;;;22.00;47.40;;;;;;5062767;28;20794;-75
2021/06/14 09:20:00;;;;;;;6.63;3.80;;;22.00;48.50;;;;;;5071448;28;20436;-75
2021/06/14 09:22:27;;;;;;;8.73;4.13;;;22.20;48.70;;;;;;5071762;28;20212;-75
2021/06/14 09:25:02;;;;;;;7.53;4.00;;;22.20;49.10;;;;;;5072988;28;20471;-76
2021/06/14 09:27:28;;;;;;;9.00;4.10;;;22.30;49.50;;;;;;5072863;28;20427;-76
2021/06/14 09:29:53;;;;;;;6.83;4.00;;;22.40;49.70;;;;;;5072105;28;20512;-74
2021/06/14 09:32:19;;;;;;;7.23;4.13;;;22.40;49.50;;;;;;5072068;28;20194;-76
2021/06/14 09:34:46;;;;;;;6.50;3.70;;;22.50;49.70;;;;;;5070580;28;20230;-75
2021/06/14 09:37:16;;;;;;;8.73;4.80;;;22.50;48.90;;;;;;5063221;28;20207;-75
2021/06/14 09:39:45;;;;;;;9.37;4.80;;;22.50;48.30;;;;;;5069776;28;20426;-75
2021/06/14 09:42:22;;;;;;;6.37;3.90;;;22.50;48.30;;;;;;5074001;28;20478;-76
2021/06/14 09:44:52;;;;;;;6.23;4.00;;;22.50;48.70;;;;;;5071566;28;20448;-74
2021/06/14 09:47:19;;;;;;;6.80;5.43;;;22.50;49.10;;;;;;5071831;28;20523;-76
2021/06/14 09:50:21;;;;;;;6.80;4.50;;;22.70;49.00;;;;;;5071325;28;20802;-75
2021/06/14 09:52:51;;;;;;;9.23;4.23;;;22.60;49.10;;;;;;5063022;28;20881;-74
2021/06/14 09:55:17;;;;;;;8.20;4.93;;;22.80;48.50;;;;;;5061527;28;20561;-76
2021/06/14 09:57:43;;;;;;;5.07;3.63;;;22.90;48.30;;;;;;5062044;28;20429;-73
2021/06/14 10:00:12;;;;;;;8.60;3.63;;;23.00;46.70;;;;;;5059392;28;20418;-75
2021/06/14 10:02:38;;;;;;;6.90;4.20;;;23.00;46.90;;;;;;5064063;28;20525;-77
2021/06/14 10:05:21;;;;;;;12.23;4.90;;;23.10;46.50;;;;;;5069981;28;20473;-76
2021/06/14 10:07:52;;;;;;;6.70;4.40;;;23.20;47.30;;;;;;5050047;28;21562;-75
2021/06/14 10:10:25;;;;;;;6.37;4.37;;;23.20;46.90;;;;;;5064447;28;20578;-75
2021/06/14 10:12:53;;;;;;;10.67;4.13;;;23.20;47.80;;;;;;5043784;28;20424;-74
2021/06/14 10:15:29;;;;;;;7.20;4.07;;;23.60;46.70;;;;;;5068639;28;20498;-75
2021/06/14 10:17:56;;;;;;;5.30;3.70;;;23.80;45.40;;;;;;5047924;28;20425;-75
2021/06/14 10:20:24;;;;;;;6.70;4.20;;;24.10;44.50;;;;;;5061109;28;20428;-75
2021/06/14 10:22:53;;;;;;;8.03;3.57;;;24.40;43.40;;;;;;5067698;28;20415;-76
2021/06/14 10:25:20;;;;;;;10.60;4.80;;;24.50;42.70;;;;;;5044545;28;20958;-75
2021/06/14 10:27:46;;;;;;;6.37;4.13;;;24.30;43.80;;;;;;5069240;28;20417;-74
2021/06/14 10:30:16;;;;;;;7.60;4.40;;;24.40;44.30;;;;;;5073087;28;20439;-74
2021/06/14 10:32:44;;;;;;;6.13;3.43;;;24.90;43.40;;;;;;5081540;28;20461;-75
2021/06/14 10:35:12;;;;;;;8.53;4.07;;;25.30;42.60;;;;;;5085291;28;20429;-77
2021/06/14 10:37:57;;;;;;;6.03;3.97;;;25.60;42.20;;;;;;5076004;28;20428;-75
2021/06/14 10:40:26;;;;;;;6.63;4.10;;;26.00;41.20;;;;;;5083655;28;20440;-74
2021/06/14 10:42:52;;;;;;;5.10;3.80;;;26.20;40.20;;;;;;5084082;28;20413;-76
2021/06/14 10:45:26;;;;;;;10.63;4.00;;;26.50;39.50;;;;;;5079750;28;20442;-74
2021/06/14 10:47:54;;;;;;;6.73;3.93;;;26.70;39.10;;;;;;5073701;28;20429;-74
2021/06/14 10:50:30;;;;;;;5.93;3.90;;;26.80;39.00;;;;;;5070709;28;20507;-76
2021/06/14 10:52:56;;;;;;;6.90;3.60;;;26.90;38.60;;;;;;5072190;28;20420;-76
2021/06/14 10:55:28;;;;;;;5.30;3.70;;;27.00;38.80;;;;;;5071089;28;20461;-76
2021/06/14 10:57:53;;;;;;;5.03;3.73;;;27.00;37.90;;;;;;5071792;28;20198;-76
2021/06/14 11:00:27;;;;;;;6.00;4.00;;;26.80;37.80;;;;;;5074163;28;20420;-74
2021/06/14 11:02:58;;;;;;;4.73;3.30;;;27.00;38.30;;;;;;5072318;28;20202;-75
2021/06/14 11:05:40;;;;;;;6.10;4.00;;;26.60;37.00;;;;;;5073253;28;20522;-74
2021/06/14 11:08:12;;;;;;;7.10;3.37;;;26.50;37.50;;;;;;5076872;28;20425;-75
2021/06/14 11:10:38;;;;;;;4.73;3.13;;;26.50;36.30;;;;;;5070577;28;20472;-75
2021/06/14 11:13:14;;;;;;;6.53;3.70;;;26.50;36.20;;;;;;5063033;28;20422;-75
2021/06/14 11:15:42;;;;;;;10.30;3.87;;;27.10;35.20;;;;;;5070309;28;20702;-74
2021/06/14 11:18:21;;;;;;;7.83;3.03;;;27.10;35.70;;;;;;5071968;28;20499;-76
2021/06/14 11:20:48;;;;;;;9.63;5.87;;;27.40;35.30;;;;;;5069822;28;20433;-74
2021/06/14 11:23:27;;;;;;;5.40;3.63;;;27.60;35.30;;;;;;5072051;28;20772;-77
2021/06/14 11:25:54;;;;;;;5.53;3.80;;;27.60;34.80;;;;;;5072027;28;20497;-75
2021/06/14 11:28:36;;;;;;;3.60;3.20;;;27.40;34.70;;;;;;5072294;28;20418;-76
2021/06/14 11:31:17;;;;;;;7.70;3.17;;;27.30;33.20;;;;;;5063871;28;20757;-75
2021/06/14 11:33:45;;;;;;;6.50;3.77;;;27.10;33.30;;;;;;5072024;28;20486;-75
2021/06/14 11:36:26;;;;;;;4.73;3.53;;;26.80;35.10;;;;;;5071879;28;20960;-78
2021/06/14 11:38:54;;;;;;;3.33;2.67;;;26.70;34.80;;;;;;5071325;28;20405;-78
2021/06/14 11:41:30;;;;;;;5.83;3.07;;;26.30;34.80;;;;;;5072381;28;20424;-75
2021/06/14 11:44:21;;;;;;;5.23;3.47;;;26.90;35.90;;;;;;5072222;28;20436;-75
2021/06/14 11:46:49;;;;;;;5.30;3.50;;;27.30;34.00;;;;;;5076055;28;20787;-75
2021/06/14 11:49:15;;;;;;;7.30;3.80;;;27.10;34.30;;;;;;5076012;28;20428;-74
2021/06/14 11:51:40;;;;;;;8.90;3.60;;;26.70;35.20;;;;;;5076188;28;20800;-77
2021/06/14 11:54:09;;;;;;;7.07;3.50;;;26.80;35.10;;;;;;5077317;28;20203;-74
2021/06/14 11:56:37;;;;;;;5.17;3.30;;;26.90;34.10;;;;;;5078979;28;20215;-76
2021/06/14 11:59:04;;;;;;;3.57;2.83;;;27.00;33.70;;;;;;5077923;28;20963;-77
2021/06/14 12:01:38;;;;;;;4.90;2.70;;;27.00;32.90;;;;;;5080396;28;20424;-74
2021/06/14 12:04:07;;;;;;;6.63;3.37;;;26.60;33.10;;;;;;5076115;28;20441;-77
2021/06/14 12:06:43;;;;;;;5.33;3.33;;;26.80;34.30;;;;;;5082697;28;20420;-74
2021/06/14 12:09:09;;;;;;;4.40;3.40;;;26.90;34.00;;;;;;5084807;28;20824;-75
2021/06/14 12:11:35;;;;;;;5.30;3.20;;;26.50;34.80;;;;;;5094131;28;20422;-74
2021/06/14 12:14:18;;;;;;;6.60;3.40;;;26.50;34.90;;;;;;5080078;28;20529;-76
2021/06/14 12:16:48;;;;;;;5.30;3.40;;;27.30;34.70;;;;;;5068285;28;20244;-76
2021/06/14 12:19:15;;;;;;;9.27;3.67;;;27.80;33.90;;;;;;5075389;28;20426;-75
2021/06/14 12:21:41;;;;;;;4.00;3.20;;;28.40;33.70;;;;;;5077050;28;20423;-76
2021/06/14 12:24:17;;;;;;;4.40;3.07;;;28.90;31.50;;;;;;5076216;28;20453;-75
2021/06/14 12:26:43;;;;;;;7.10;3.50;;;29.30;30.90;;;;;;5077233;28;20268;-76
2021/06/14 12:29:22;;;;;;;6.53;3.40;;;29.60;30.30;;;;;;5077556;28;20442;-77
2021/06/14 12:32:17;;;;;;;3.50;2.93;;;29.80;30.30;;;;;;5081777;28;20180;-77
2021/06/14 12:34:44;;;;;;;4.87;3.50;;;29.40;29.70;;;;;;5079915;28;20561;-75
2021/06/14 12:37:17;;;;;;;4.43;3.17;;;28.70;31.10;;;;;;5088255;28;20465;-75
2021/06/14 12:39:55;;;;;;;4.90;3.10;;;28.60;31.10;;;;;;5084264;28;21398;-77
2021/06/14 12:42:21;;;;;;;6.73;3.47;;;29.30;30.40;;;;;;5076456;28;20426;-76
2021/06/14 12:45:14;;;;;;;6.57;3.70;;;29.10;30.70;;;;;;5073769;28;20837;-76
2021/06/14 12:47:45;;;;;;;5.17;3.63;;;29.60;30.80;;;;;;5072066;28;20319;-76
2021/06/14 12:50:24;;;;;;;5.47;3.30;;;29.80;30.40;;;;;;5074165;28;20422;-76
2021/06/14 12:52:51;;;;;;;5.20;3.57;;;30.10;29.60;;;;;;5069382;28;20513;-76
2021/06/14 12:55:22;;;;;;;4.03;3.17;;;29.50;29.90;;;;;;5072374;28;20512;-76
2021/06/14 12:57:49;;;;;;;4.33;2.60;;;29.90;30.30;;;;;;5072460;28;20517;-76
2021/06/14 13:00:24;;;;;;;6.50;3.27;;;30.40;29.00;;;;;;5074134;28;20422;-75